createdAt,value
2023-02-15T00:01:43.839Z,261.50
2023-02-15T00:04:13.765Z,294.30
2023-02-15T00:06:41.504Z,286.00
2023-02-15T00:09:09.810Z,307.00
2023-02-15T00:11:40.829Z,327.00
2023-02-15T00:14:13.777Z,344.30
2023-02-15T00:16:42.227Z,322.50
2023-02-15T00:19:10.902Z,322.30
2023-02-15T00:21:39.626Z,341.50
2023-02-15T00:24:09.074Z,329.20
2023-02-15T00:26:38.653Z,288.30
2023-02-15T00:29:06.718Z,233.70
2023-02-15T00:31:35.248Z,237.20
2023-02-15T00:34:05.090Z,241.60
2023-02-15T00:36:33.292Z,253.70
2023-02-15T00:39:01.124Z,215.90
2023-02-15T00:41:28.868Z,217.40
2023-02-15T00:43:56.701Z,187.90
2023-02-15T00:46:24.501Z,163.00
2023-02-15T00:48:52.495Z,162.60
2023-02-15T00:51:21.446Z,172.20
2023-02-15T00:53:49.337Z,173.90
2023-02-15T00:56:17.134Z,185.80
2023-02-15T00:58:44.985Z,208.70
2023-02-15T01:01:16.931Z,199.80
2023-02-15T01:03:44.888Z,200.90
2023-02-15T01:06:12.766Z,196.90
2023-02-15T01:08:41.078Z,182.90
2023-02-15T01:11:10.623Z,179.30
2023-02-15T01:13:38.859Z,173.30
2023-02-15T01:16:06.818Z,160.10
2023-02-15T01:18:35.004Z,155.20
2023-02-15T01:21:10.342Z,160.50
2023-02-15T01:23:38.352Z,166.30
2023-02-15T01:26:06.149Z,169.20
2023-02-15T01:28:33.998Z,170.80
2023-02-15T01:31:05.921Z,158.70
2023-02-15T01:33:33.841Z,153.10
2023-02-15T01:36:01.967Z,145.30
2023-02-15T01:38:30.590Z,146.30
2023-02-15T01:41:18.835Z,164.80
2023-02-15T01:43:48.100Z,166.50
2023-02-15T01:46:17.351Z,138.20
2023-02-15T01:48:47.562Z,140.10
2023-02-15T01:51:17.174Z,160.50
2023-02-15T01:53:47.997Z,176.30
2023-02-15T01:56:21.069Z,160.40
2023-02-15T01:58:50.411Z,160.20
2023-02-15T02:01:18.833Z,158.40
2023-02-15T02:03:53.088Z,132.60
2023-02-15T02:06:21.075Z,129.70
2023-02-15T02:08:49.154Z,147.00
2023-02-15T02:11:17.031Z,145.30
2023-02-15T02:13:45.582Z,135.90
2023-02-15T02:16:19.233Z,154.60
2023-02-15T02:18:53.433Z,177.70
2023-02-15T02:21:36.102Z,198.70
2023-02-15T02:24:03.790Z,208.70
2023-02-15T02:26:46.741Z,168.30
2023-02-15T02:29:17.324Z,142.70
2023-02-15T02:31:48.797Z,142.70
2023-02-15T02:34:20.999Z,162.00
2023-02-15T02:36:58.625Z,135.70
2023-02-15T02:39:49.648Z,127.00
2023-02-15T02:42:17.353Z,121.30
2023-02-15T02:44:48.568Z,119.00
2023-02-15T02:47:30.830Z,120.80
2023-02-15T02:50:04.212Z,109.10
2023-02-15T02:52:41.661Z,104.00
2023-02-15T02:55:14.681Z,113.10
2023-02-15T02:57:46.618Z,108.60
2023-02-15T03:00:16.737Z,101.10
2023-02-15T03:02:46.005Z,107.80
2023-02-15T03:05:16.824Z,105.60
2023-02-15T03:07:45.440Z,107.40
2023-02-15T03:10:13.157Z,95.90
2023-02-15T03:12:41.616Z,110.60
2023-02-15T03:15:09.608Z,96.30
2023-02-15T03:17:39.439Z,94.40
2023-02-15T03:20:27.277Z,98.00
2023-02-15T03:23:00.557Z,96.90
2023-02-15T03:25:34.181Z,98.80
2023-02-15T03:28:07.337Z,95.50
2023-02-15T03:30:36.206Z,90.20
2023-02-15T03:33:04.750Z,86.10
2023-02-15T03:35:36.932Z,96.50
2023-02-15T03:38:07.932Z,124.10
2023-02-15T03:40:57.070Z,100.10
2023-02-15T03:43:38.848Z,107.90
2023-02-15T03:46:09.196Z,118.90
2023-02-15T03:48:45.977Z,112.10
2023-02-15T03:51:36.269Z,88.60
2023-02-15T03:54:06.003Z,90.40
2023-02-15T03:56:34.771Z,103.40
2023-02-15T03:59:21.144Z,108.70
2023-02-15T04:01:58.279Z,93.00
2023-02-15T04:04:27.552Z,89.20
2023-02-15T04:06:55.314Z,96.40
2023-02-15T04:09:41.758Z,107.90
2023-02-15T04:12:09.554Z,106.20
2023-02-15T04:14:55.974Z,124.70
2023-02-15T04:17:23.758Z,129.20
2023-02-15T04:20:10.207Z,175.60
2023-02-15T04:22:56.313Z,168.80
2023-02-15T04:25:24.220Z,167.60
2023-02-15T04:27:53.686Z,164.50
2023-02-15T04:30:22.981Z,146.30
2023-02-15T04:32:51.158Z,131.40
2023-02-15T04:35:18.919Z,137.10
2023-02-15T04:37:46.811Z,129.10
2023-02-15T04:40:18.770Z,118.70
2023-02-15T04:42:50.302Z,115.90
2023-02-15T04:45:18.292Z,108.70
2023-02-15T04:47:46.053Z,100.50
2023-02-15T04:50:13.909Z,96.30
2023-02-15T04:52:41.778Z,93.80
2023-02-15T04:55:09.918Z,92.60
2023-02-15T04:57:37.640Z,91.60
2023-02-15T05:00:05.809Z,100.00
2023-02-15T05:02:33.669Z,97.60
2023-02-15T05:05:01.567Z,100.20
2023-02-15T05:07:29.322Z,98.00
2023-02-15T05:09:57.111Z,109.40
2023-02-15T05:12:24.841Z,99.80
2023-02-15T05:14:52.724Z,96.80
2023-02-15T05:17:20.472Z,100.00
2023-02-15T05:19:48.356Z,96.30
2023-02-15T05:22:16.186Z,94.50
2023-02-15T05:25:02.485Z,91.10
2023-02-15T05:27:49.024Z,92.50
2023-02-15T05:30:17.012Z,85.40
2023-02-15T05:32:44.928Z,82.20
2023-02-15T05:35:14.767Z,161.00
2023-02-15T05:37:42.606Z,189.50
2023-02-15T05:40:10.652Z,238.10
2023-02-15T05:42:38.537Z,187.30
2023-02-15T05:45:06.753Z,204.00
2023-02-15T05:47:34.598Z,261.40
2023-02-15T05:50:02.494Z,198.70
2023-02-15T05:52:30.333Z,160.50
2023-02-15T05:54:59.145Z,147.10
2023-02-15T05:57:27.710Z,123.30
2023-02-15T05:59:55.481Z,96.80
2023-02-15T06:02:23.334Z,97.70
2023-02-15T06:04:51.289Z,94.40
2023-02-15T06:07:19.063Z,149.60
2023-02-15T06:09:46.829Z,144.20
2023-02-15T06:12:14.795Z,93.90
2023-02-15T06:14:42.610Z,100.30
2023-02-15T06:17:10.433Z,101.10
2023-02-15T06:19:38.201Z,112.60
2023-02-15T06:22:07.361Z,107.80
2023-02-15T06:27:23.452Z,120.20
2023-02-15T06:29:51.336Z,108.30
2023-02-15T06:32:19.182Z,103.20
2023-02-15T06:34:48.743Z,106.10
2023-02-15T06:37:16.771Z,114.10
2023-02-15T06:39:45.525Z,110.30
2023-02-15T06:42:13.400Z,114.30
2023-02-15T06:44:41.225Z,111.40
2023-02-15T06:47:09.036Z,113.40
2023-02-15T06:49:36.812Z,108.80
2023-02-15T06:52:05.285Z,106.70
2023-02-15T06:54:33.130Z,116.40
2023-02-15T06:57:00.979Z,111.00
2023-02-15T06:59:28.960Z,116.00
2023-02-15T07:01:56.863Z,116.40
2023-02-15T07:04:24.701Z,116.10
2023-02-15T07:06:53.987Z,125.40
2023-02-15T07:09:22.464Z,114.00
2023-02-15T07:12:09.037Z,111.50
2023-02-15T07:14:36.874Z,110.70
2023-02-15T07:17:06.143Z,116.60
2023-02-15T07:19:36.603Z,119.40
2023-02-15T07:22:06.691Z,118.90
2023-02-15T07:24:35.588Z,119.80
2023-02-15T07:27:04.169Z,123.10
2023-02-15T07:29:33.343Z,118.30
2023-02-15T07:32:01.609Z,113.00
2023-02-15T07:34:29.866Z,108.90
2023-02-15T07:36:58.503Z,114.20
2023-02-15T07:39:26.630Z,106.20
2023-02-15T07:41:54.734Z,103.30
2023-02-15T07:44:22.550Z,104.80
2023-02-15T07:46:50.408Z,106.50
2023-02-15T07:49:18.333Z,106.20
2023-02-15T07:51:46.824Z,105.40
2023-02-15T07:54:14.623Z,106.30
2023-02-15T07:56:42.452Z,113.20
2023-02-15T07:59:10.632Z,117.00
2023-02-15T08:01:39.685Z,114.70
2023-02-15T08:04:08.711Z,93.80
2023-02-15T08:06:37.089Z,88.00
2023-02-15T08:09:06.500Z,76.10
2023-02-15T08:11:38.865Z,74.00
2023-02-15T08:14:09.758Z,65.80
2023-02-15T08:16:37.677Z,66.20
2023-02-15T08:19:16.170Z,66.60
2023-02-15T08:21:48.403Z,70.80
2023-02-15T08:24:17.401Z,74.50
2023-02-15T08:26:48.889Z,73.90
2023-02-15T08:29:17.577Z,74.70
2023-02-15T08:31:45.793Z,63.70
2023-02-15T08:34:16.347Z,62.20
2023-02-15T08:36:46.188Z,64.00
2023-02-15T08:39:14.963Z,60.90
2023-02-15T08:41:43.879Z,63.20
2023-02-15T08:44:11.880Z,57.00
2023-02-15T08:46:41.117Z,57.70
2023-02-15T08:49:09.373Z,58.10
2023-02-15T08:51:38.499Z,58.30
2023-02-15T08:54:08.156Z,55.50
2023-02-15T08:56:37.431Z,56.80
2023-02-15T08:59:06.109Z,54.50
2023-02-15T09:01:36.104Z,54.70
2023-02-15T09:04:10.833Z,57.00
2023-02-15T09:06:39.200Z,51.80
2023-02-15T09:09:07.447Z,50.80
2023-02-15T09:11:36.882Z,49.90
2023-02-15T09:14:14.956Z,48.30
2023-02-15T09:16:45.837Z,47.00
2023-02-15T09:19:14.327Z,42.90
2023-02-15T09:21:42.461Z,40.40
2023-02-15T09:24:11.612Z,51.20
2023-02-15T09:26:43.833Z,41.40
2023-02-15T09:29:12.200Z,39.10
2023-02-15T09:31:45.770Z,46.10
2023-02-15T09:34:17.738Z,37.10
2023-02-15T09:36:46.240Z,34.50
2023-02-15T09:39:18.571Z,36.30
2023-02-15T09:41:52.663Z,38.40
2023-02-15T09:44:32.430Z,39.00
2023-02-15T09:47:00.249Z,38.10
2023-02-15T09:49:40.479Z,36.80
2023-02-15T09:52:15.509Z,37.60
2023-02-15T09:54:55.160Z,38.40
2023-02-15T09:57:28.926Z,39.40
2023-02-15T10:00:06.156Z,37.40
2023-02-15T10:02:47.058Z,40.50
2023-02-15T10:05:25.802Z,42.90
2023-02-15T10:08:08.975Z,35.90
2023-02-15T10:10:43.599Z,37.90
2023-02-15T10:13:17.509Z,40.50
2023-02-15T10:16:02.487Z,43.30
2023-02-15T10:18:49.290Z,38.10
2023-02-15T10:21:36.310Z,46.20
2023-02-15T10:24:13.369Z,45.00
2023-02-15T10:26:48.538Z,53.30
2023-02-15T10:29:19.327Z,46.20
2023-02-15T10:31:52.079Z,43.00
2023-02-15T10:34:20.173Z,46.40
2023-02-15T10:36:47.950Z,42.10
2023-02-15T10:39:24.317Z,43.70
2023-02-15T10:42:11.034Z,41.10
2023-02-15T10:44:50.979Z,41.90
2023-02-15T10:47:40.298Z,40.60
2023-02-15T10:50:08.122Z,42.70
2023-02-15T10:52:38.995Z,43.90
2023-02-15T10:55:23.835Z,41.90
2023-02-15T10:57:54.570Z,47.80
2023-02-15T11:00:32.415Z,46.70
2023-02-15T11:03:09.321Z,46.70
2023-02-15T11:05:51.316Z,42.80
2023-02-15T11:08:19.914Z,41.80
2023-02-15T11:11:08.038Z,40.70
2023-02-15T11:13:40.088Z,40.70
2023-02-15T11:16:08.022Z,43.30
2023-02-15T11:18:40.304Z,47.70
2023-02-15T11:21:18.747Z,42.60
2023-02-15T11:23:47.766Z,46.80
2023-02-15T11:26:18.210Z,46.90
2023-02-15T11:28:58.614Z,44.80
2023-02-15T11:31:27.461Z,48.40
2023-02-15T11:33:58.681Z,46.00
2023-02-15T11:36:28.736Z,42.20
2023-02-15T11:39:03.187Z,41.10
2023-02-15T11:41:33.587Z,46.80
2023-02-15T11:44:27.878Z,41.50
2023-02-15T11:46:55.726Z,42.50
2023-02-15T11:49:23.986Z,42.70
2023-02-15T11:51:52.747Z,46.70
2023-02-15T11:54:22.554Z,42.00
2023-02-15T11:56:50.445Z,41.30
2023-02-15T11:59:30.618Z,39.90
2023-02-15T12:01:58.475Z,40.40
2023-02-15T12:04:41.499Z,40.80
2023-02-15T12:07:26.840Z,40.40
2023-02-15T12:09:54.707Z,44.70
2023-02-15T12:12:26.437Z,44.50
2023-02-15T12:14:55.609Z,41.30
2023-02-15T12:17:25.180Z,44.20
2023-02-15T12:19:57.478Z,44.80
2023-02-15T12:22:27.280Z,38.40
2023-02-15T12:24:56.624Z,40.80
2023-02-15T12:27:35.449Z,45.10
2023-02-15T12:30:23.553Z,43.00
2023-02-15T12:32:54.667Z,45.70
2023-02-15T12:35:22.430Z,43.40
2023-02-15T12:37:58.044Z,44.20
2023-02-15T12:40:30.936Z,41.00
2023-02-15T12:42:59.403Z,43.30
2023-02-15T12:45:27.289Z,42.70
2023-02-15T12:48:09.738Z,44.30
2023-02-15T12:50:37.900Z,49.00
2023-02-15T12:53:13.722Z,42.50
2023-02-15T12:55:50.937Z,42.10
2023-02-15T12:58:21.001Z,43.00
2023-02-15T13:00:49.758Z,44.30
2023-02-15T13:03:25.130Z,45.20
2023-02-15T13:05:54.787Z,38.50
2023-02-15T13:08:33.495Z,40.40
2023-02-15T13:11:24.736Z,43.50
2023-02-15T13:13:53.060Z,42.20
2023-02-15T13:16:40.189Z,41.00
2023-02-15T13:19:16.689Z,39.20
2023-02-15T13:21:49.173Z,44.10
2023-02-15T13:24:24.065Z,40.20
2023-02-15T13:26:53.472Z,44.60
2023-02-15T13:29:24.415Z,42.20
2023-02-15T13:31:54.116Z,42.10
2023-02-15T13:34:25.105Z,45.80
2023-02-15T13:36:57.894Z,47.40
2023-02-15T13:39:45.987Z,46.80
2023-02-15T13:42:30.035Z,44.30
2023-02-15T13:45:23.286Z,48.90
2023-02-15T13:48:11.796Z,46.70
2023-02-15T13:50:39.836Z,46.90
2023-02-15T13:53:07.683Z,45.20
2023-02-15T13:55:41.479Z,41.90
2023-02-15T13:58:18.807Z,47.30
2023-02-15T14:01:02.506Z,40.50
2023-02-15T14:03:49.877Z,38.40
2023-02-15T14:06:38.062Z,37.50
2023-02-15T14:09:17.538Z,35.30
2023-02-15T14:11:57.092Z,37.40
2023-02-15T14:14:43.983Z,45.70
2023-02-15T14:17:24.911Z,35.50
2023-02-15T14:19:55.514Z,42.70
2023-02-15T14:22:33.478Z,36.90
2023-02-15T14:25:04.570Z,40.30
2023-02-15T14:27:53.215Z,39.10
2023-02-15T14:30:27.779Z,41.20
2023-02-15T14:32:57.202Z,42.20
2023-02-15T14:35:27.282Z,39.30
2023-02-15T14:38:10.745Z,41.60
2023-02-15T14:41:02.479Z,35.50
2023-02-15T14:43:50.075Z,36.40
2023-02-15T14:46:33.644Z,41.30
2023-02-15T14:49:08.384Z,42.40
2023-02-15T14:51:46.948Z,47.90
2023-02-15T14:54:18.343Z,37.80
2023-02-15T14:56:46.754Z,37.80
2023-02-15T14:59:16.074Z,37.70
2023-02-15T15:01:52.851Z,39.10
2023-02-15T15:04:30.216Z,37.20
2023-02-15T15:07:00.517Z,40.30
2023-02-15T15:09:29.437Z,45.90
2023-02-15T15:12:16.154Z,49.90
2023-02-15T15:14:45.061Z,44.10
2023-02-15T15:17:14.103Z,39.80
2023-02-15T15:19:52.598Z,44.00
2023-02-15T15:22:21.938Z,45.40
2023-02-15T15:24:54.216Z,48.10
2023-02-15T15:27:41.309Z,47.90
2023-02-15T15:30:15.380Z,48.40
2023-02-15T15:33:00.185Z,44.50
2023-02-15T15:35:27.977Z,48.70
2023-02-15T15:38:15.530Z,47.90
2023-02-15T15:40:55.731Z,50.20
2023-02-15T15:43:29.128Z,47.40
2023-02-15T15:46:19.196Z,48.30
2023-02-15T15:48:47.327Z,53.30
2023-02-15T15:51:15.296Z,64.70
2023-02-15T15:53:47.016Z,60.30
2023-02-15T15:56:19.502Z,59.50
2023-02-15T15:58:51.574Z,60.80
2023-02-15T16:01:25.174Z,54.80
2023-02-15T16:03:54.390Z,59.30
2023-02-15T16:06:30.331Z,57.80
2023-02-15T16:08:58.408Z,64.80
2023-02-15T16:11:28.210Z,68.20
2023-02-15T16:13:56.483Z,71.60
2023-02-15T16:16:31.088Z,66.20
2023-02-15T16:19:00.774Z,64.90
2023-02-15T16:21:30.219Z,66.20
2023-02-15T16:24:04.137Z,90.00
2023-02-15T16:26:39.009Z,81.50
2023-02-15T16:29:19.147Z,72.70
2023-02-15T16:32:10.143Z,70.60
2023-02-15T16:34:38.238Z,107.50
2023-02-15T16:37:16.617Z,97.40
2023-02-15T16:39:45.675Z,102.80
2023-02-15T16:42:15.141Z,87.80
2023-02-15T16:44:43.764Z,82.20
2023-02-15T16:47:18.290Z,81.20
2023-02-15T16:49:50.865Z,69.50
2023-02-15T16:52:23.898Z,72.10
2023-02-15T16:54:54.789Z,76.50
2023-02-15T16:57:25.510Z,74.00
2023-02-15T16:59:54.690Z,74.10
2023-02-15T17:02:49.437Z,250.30
2023-02-15T17:05:18.757Z,292.70
2023-02-15T17:07:51.998Z,238.60
2023-02-15T17:10:31.257Z,213.20
2023-02-15T17:13:03.711Z,222.10
2023-02-15T17:15:34.074Z,236.40
2023-02-15T17:18:05.442Z,233.60
2023-02-15T17:20:37.068Z,219.90
2023-02-15T17:23:06.810Z,218.40
2023-02-15T17:25:41.089Z,199.70
2023-02-15T17:28:18.509Z,171.40
2023-02-15T17:30:48.105Z,170.30
2023-02-15T17:33:30.016Z,179.20
2023-02-15T17:36:12.815Z,161.10
2023-02-15T17:38:41.914Z,167.00
2023-02-15T17:41:10.195Z,139.10
2023-02-15T17:43:38.619Z,138.00
2023-02-15T17:46:07.065Z,174.80
2023-02-15T17:48:36.715Z,138.30
2023-02-15T17:51:07.572Z,135.30
2023-02-15T17:53:35.558Z,129.10
2023-02-15T17:56:10.646Z,155.30
2023-02-15T17:58:39.518Z,131.50
2023-02-15T18:01:30.104Z,147.00
2023-02-15T18:04:29.151Z,169.50
2023-02-15T18:07:16.020Z,168.60
2023-02-15T18:10:02.824Z,198.90
2023-02-15T18:12:32.852Z,264.50
2023-02-15T18:15:01.791Z,219.70
2023-02-15T18:17:29.856Z,198.30
2023-02-15T18:19:57.885Z,202.20
2023-02-15T18:22:28.742Z,221.60
2023-02-15T18:24:56.721Z,218.00
2023-02-15T18:27:24.745Z,238.60
2023-02-15T18:33:02.001Z,212.60
2023-02-15T18:35:31.096Z,209.00
2023-02-15T18:37:59.428Z,217.30
2023-02-15T18:40:28.462Z,230.20
2023-02-15T18:42:57.409Z,249.50
2023-02-15T18:45:28.829Z,267.50
2023-02-15T18:47:58.908Z,256.60
2023-02-15T18:50:29.220Z,229.70
2023-02-15T18:52:59.875Z,266.80
2023-02-15T18:55:28.495Z,306.30
2023-02-15T18:57:57.383Z,278.70
2023-02-15T19:00:28.397Z,273.00
2023-02-15T19:02:57.340Z,328.00
2023-02-15T19:05:29.676Z,345.50
2023-02-15T19:07:58.760Z,684.90
2023-02-15T19:10:28.708Z,620.00
2023-02-15T19:12:56.726Z,686.20
2023-02-15T19:15:30.494Z,808.50
2023-02-15T19:17:58.504Z,885.70
2023-02-15T19:20:37.758Z,960.00
2023-02-15T19:23:14.461Z,827.40
2023-02-15T19:25:42.584Z,887.40
2023-02-15T19:28:18.283Z,854.90
2023-02-15T19:30:46.254Z,865.10
2023-02-15T19:33:19.157Z,865.20
2023-02-15T19:35:49.203Z,781.20
2023-02-15T19:38:22.808Z,641.30
2023-02-15T19:40:51.506Z,593.30
2023-02-15T19:43:20.890Z,679.60
2023-02-15T19:45:52.487Z,643.40
2023-02-15T19:48:20.616Z,607.60
2023-02-15T19:50:49.431Z,630.80
2023-02-15T19:53:17.225Z,566.30
2023-02-15T19:55:45.268Z,493.10
2023-02-15T19:58:19.245Z,458.60
2023-02-15T20:00:49.233Z,542.70
2023-02-15T20:03:17.742Z,523.90
2023-02-15T20:05:45.778Z,540.50
2023-02-15T20:08:19.290Z,542.40
2023-02-15T20:10:47.325Z,574.70
2023-02-15T20:13:17.559Z,583.00
2023-02-15T20:15:46.448Z,574.20
2023-02-15T20:18:14.722Z,579.90
2023-02-15T20:20:50.831Z,571.00
2023-02-15T20:23:21.475Z,582.90
2023-02-15T20:25:50.036Z,633.40
2023-02-15T20:28:19.390Z,678.30
2023-02-15T20:30:48.025Z,678.80
2023-02-15T20:33:16.575Z,700.10
2023-02-15T20:35:45.350Z,712.60
2023-02-15T20:38:20.606Z,687.20
2023-02-15T20:41:07.321Z,652.50
2023-02-15T20:43:35.301Z,676.70
2023-02-15T20:46:04.124Z,658.30
2023-02-15T20:48:32.661Z,554.80
2023-02-15T20:51:00.869Z,543.10
2023-02-15T20:53:30.030Z,571.50
2023-02-15T20:55:58.183Z,586.40
2023-02-15T20:58:28.028Z,560.70
2023-02-15T21:00:57.927Z,584.20
2023-02-15T21:03:28.039Z,563.40
2023-02-15T21:05:56.283Z,501.50
2023-02-15T21:08:24.915Z,561.50
2023-02-15T21:10:53.863Z,567.40
2023-02-15T21:13:22.304Z,570.20
2023-02-15T21:15:50.866Z,620.30
2023-02-15T21:18:22.418Z,598.40
2023-02-15T21:20:52.089Z,591.90
2023-02-15T21:23:23.998Z,588.60
2023-02-15T21:25:52.236Z,653.20
2023-02-15T21:28:22.239Z,682.70
2023-02-15T21:30:50.658Z,691.90
2023-02-15T21:33:19.154Z,727.80
2023-02-15T21:35:49.115Z,627.50
2023-02-15T21:38:18.450Z,634.40
2023-02-15T21:40:48.174Z,580.10
2023-02-15T21:43:36.038Z,582.00
2023-02-15T21:46:33.594Z,606.70
2023-02-15T21:49:01.953Z,638.90
2023-02-15T21:51:49.147Z,633.50
2023-02-15T21:54:18.877Z,645.60
2023-02-15T21:56:48.826Z,634.10
2023-02-15T21:59:17.819Z,508.10
2023-02-15T22:01:49.882Z,450.30
2023-02-15T22:04:23.823Z,536.70
2023-02-15T22:06:52.053Z,548.10
2023-02-15T22:09:24.174Z,529.30
2023-02-15T22:11:52.064Z,538.60
2023-02-15T22:14:38.786Z,448.10
2023-02-15T22:17:13.121Z,348.00
2023-02-15T22:19:41.501Z,294.20
2023-02-15T22:22:09.491Z,207.20
2023-02-15T22:24:38.243Z,202.70
2023-02-15T22:27:06.826Z,345.00
2023-02-15T22:29:37.439Z,351.00
2023-02-15T22:32:06.116Z,381.60
2023-02-15T22:34:34.075Z,351.00
2023-02-15T22:37:03.316Z,372.10
2023-02-15T22:39:31.224Z,417.30
2023-02-15T22:41:59.647Z,417.90
2023-02-15T22:44:29.949Z,453.50
2023-02-15T22:46:59.239Z,428.70
2023-02-15T22:49:27.715Z,476.60
2023-02-15T22:51:55.808Z,485.50
2023-02-15T22:54:24.100Z,456.50
2023-02-15T22:56:55.134Z,441.00
2023-02-15T22:59:28.997Z,443.80
2023-02-15T23:01:57.547Z,410.70
2023-02-15T23:04:27.725Z,427.10
2023-02-15T23:06:58.523Z,417.90
2023-02-15T23:09:27.094Z,422.60
2023-02-15T23:11:55.073Z,410.60
2023-02-15T23:14:29.195Z,407.50
2023-02-15T23:16:57.075Z,433.80
2023-02-15T23:19:25.810Z,485.40
2023-02-15T23:21:54.143Z,477.20
2023-02-15T23:24:23.789Z,429.50
2023-02-15T23:26:51.927Z,422.80
2023-02-15T23:29:21.685Z,435.80
2023-02-15T23:31:51.322Z,475.90
2023-02-15T23:34:22.336Z,488.80
2023-02-15T23:36:50.389Z,514.90
2023-02-15T23:39:39.445Z,529.30
2023-02-15T23:42:18.176Z,497.20
2023-02-15T23:44:47.140Z,459.80
2023-02-15T23:47:20.144Z,427.00
2023-02-15T23:49:47.936Z,427.90
2023-02-15T23:52:15.772Z,408.60
2023-02-15T23:54:43.561Z,367.40
2023-02-15T23:57:11.697Z,358.60
2023-02-15T23:59:42.255Z,250.20
